• Join FlightAware (Why Join?)
  • Login
  • US Flag 
04:53PM EDT


 

Airport Tracker/Info


-or-


 

Live Flight TrackerFlight Track Log ✈ CSN3242 ✈ 14-Jun-2013 ✈ ZGKL / KWL - ZGNN / NNG

Flight Track Log - Related Links

Times and Time Zones

All times are in EDT time to prevent confusion due to time zone crossing. See the CSN3242 flight status page for this flight to view local times or setup timezone preferences in your user account.

Time Position Orientation Groundspeed Altitude Reporting Facility
EDT Latitude Longitude Course Direction KTS MPH feet Rate Location/Type
11:36AM 25.0880 109.9439 214° Southwest  Level Estimated
11:37AM 24.9578 109.8488 214° Southwest  Level Estimated
11:38AM 24.8275 109.7539 213° Southwest  Level Estimated
11:39AM 24.6972 109.6591 213° Southwest  Level Estimated
11:40AM 24.5668 109.5646 213° Southwest  Level Estimated
11:41AM 24.4364 109.4703 213° Southwest  Level Estimated
11:42AM 24.3059 109.3762 213° Southwest  Level Estimated
11:43AM 24.1753 109.2823 213° Southwest  Level Estimated
11:44AM 24.0447 109.1885 213° Southwest  Level Estimated
11:45AM 23.9140 109.0950 213° Southwest  Level Estimated
11:46AM 23.7833 109.0016 213° Southwest  Level Estimated
11:47AM 23.6525 108.9084 213° Southwest  Level Estimated
11:48AM 23.5217 108.8155 213° Southwest  Level Estimated
11:49AM 23.3908 108.7227 213° Southwest  Level Estimated
11:50AM 23.2598 108.6300 213° Southwest  Level Estimated
11:51AM 23.1288 108.5376 213° Southwest  Level Estimated
11:52AM 22.9978 108.4454 213° Southwest  Level Estimated
11:53AM 22.8667 108.3533 213° Southwest  Level Estimated
11:54AM 22.7355 108.2614 213° Southwest  Level Estimated
11:55AM 22.6083 108.1724 213° Southwest  Level Estimated
11:56AM 22.6083 108.1724 148° Southeast  Level Estimated
11:57AM 22.6083 108.1724 148° Southeast  Level Estimated
11:58AM 22.6083 108.1724 148° Southeast  Level Estimated
11:59AM 22.6083 108.1724 148° Southeast  Level Estimated
12:00PM 22.6083 108.1724 148° Southeast  Level Estimated
12:01PM 22.6083 108.1724 148° Southeast  Level Estimated
12:02PM 22.6083 108.1724 148° Southeast  Level Estimated
12:03PM 22.6083 108.1724 148° Southeast  Level Estimated
12:04PM 22.6083 108.1724 148° Southeast  Level Estimated
12:05PM 22.6083 108.1724 148° Southeast  Level Estimated
12:06PM 22.6083 108.1724 148° Southeast  Level Estimated
12:07PM 22.6083 108.1724 148° Southeast  Level Estimated